MSC Immacolata — 3FLQ2 — position and weather

sailwx.info

Track history (hours):
 
Tides and Currents Weather Stations Pressure Air Temp Water Temp Dewpoint Dewpoint Depression Visibility Wind Speed Wind Dir Waves Ship Positions

MSC Immacolata

Last reported at 2017-Nov-12 06:38 UTC. Time now 2017-Nov-18 23:23 UTC.
Position N 36°19' W 009°24'.

Length 199 m; draft 10 m.

Type: Cargo ship. MMSI: 373124000.

Date/timePositionNaut miles runAvg speedWind from/ knotsBaromVisibWave heightAir tempDewpointWater temp
2017-Nov-12 06:38N 36°19' W 009°24'217.4
2017-Nov-12 06:30N 36°18' W 009°21'917.6
2017-Nov-12 06:00N 36°14' W 009°11'917.6
2017-Nov-12 05:30N 36°11' W 009°01'917.4
2017-Nov-12 04:59N 36°07' W 008°51'817.4
2017-Nov-12 04:30N 36°04' W 008°41'2317.3
2017-Nov-12 03:10N 35°58' W 008°13'1317.7
2017-Nov-12 02:27N 35°58' W 007°57'1717.7
2017-Nov-12 01:29N 35°58' W 007°36'817.9
2017-Nov-12 01:00N 35°58' W 007°26'8817.3
2017-Nov-11 19:54N 35°58' W 005°37'616.8
2017-Nov-11 19:30N 35°59' W 005°29'815.6
2017-Nov-11 19:00N 36°02' W 005°20'815.3
2017-Nov-11 18:30N 36°03' W 005°11'21216.8
2017-Nov-11 05:51N 37°14' W 001°01'718.6
2017-Nov-11 05:29N 37°19' W 000°55'918.6
2017-Nov-11 05:00N 37°25' W 000°47'918.2
2017-Nov-11 04:29N 37°31' W 000°38'917.7
2017-Nov-11 04:00N 37°38' W 000°30'917.7
2017-Nov-11 03:30N 37°45' W 000°24'917.5
2017-Nov-11 03:00N 37°52' W 000°18'917.3
2017-Nov-11 02:30N 37°60' W 000°12'44910.0
2017-Nov-09 05:45N 43°04' E 007°01'417.9
2017-Nov-09 05:30N 43°07' E 007°06'917.8
2017-Nov-09 05:00N 43°13' E 007°15'1217.9
2017-Nov-09 04:19N 43°21' E 007°28'5018.4
2017-Nov-09 01:37N 43°53' E 008°20'218.6
2017-Nov-09 01:30N 43°55' E 008°21'918.8
2017-Nov-09 01:00N 44°04' E 008°26'918.3
2017-Nov-09 00:30N 44°12' E 008°31'713.2
2017-Nov-09 00:00N 44°19' E 008°31'1 1.0
2017-Nov-08 23:28N 44°19' E 008°30'0 0.0
2017-Nov-08 22:58N 44°19' E 008°30'0 0.0
2017-Nov-08 22:28N 44°19' E 008°30'0 0.0
2017-Nov-08 21:58N 44°19' E 008°30'0 0.0
2017-Nov-08 21:28N 44°19' E 008°30'0 0.0
2017-Nov-08 20:58N 44°19' E 008°30'0 0.0
2017-Nov-08 20:28N 44°19' E 008°30'0 0.0
2017-Nov-08 19:58N 44°19' E 008°30'0 0.0
2017-Nov-08 19:28N 44°19' E 008°30'0 0.0
2017-Nov-08 18:58N 44°19' E 008°30'0 0.0
2017-Nov-08 18:28N 44°19' E 008°30'0 0.0
2017-Nov-08 17:58N 44°19' E 008°30'0 0.0
2017-Nov-08 17:28N 44°19' E 008°30'0 0.0
2017-Nov-08 16:58N 44°19' E 008°30'0 0.0
2017-Nov-08 16:28N 44°19' E 008°30'0 0.0
2017-Nov-08 15:58N 44°19' E 008°30'0 0.0
2017-Nov-08 15:28N 44°19' E 008°30'0 0.0
2017-Nov-08 14:58N 44°19' E 008°30'0 0.4
2017-Nov-08 14:30N 44°19' E 008°30'2 3.5
2017-Nov-08 14:00N 44°18' E 008°32'510.3
2017-Nov-08 13:30N 44°14' E 008°37'713.7
2017-Nov-08 13:01N 44°08' E 008°42'816.3
2017-Nov-08 12:31N 44°01' E 008°48'917.9
2017-Nov-08 12:01N 43°54' E 008°55'918.1
2017-Nov-08 11:31N 43°46' E 009°02'918.3
2017-Nov-08 11:01N 43°39' E 009°09'918.2
2017-Nov-08 10:30N 43°31' E 009°16'918.2
2017-Nov-08 10:01N 43°23' E 009°22'918.1
2017-Nov-08 09:31N 43°16' E 009°29'918.1
2017-Nov-08 09:01N 43°08' E 009°36'3218.2
2017-Nov-08 07:16N 42°38' E 009°48'3317.2
2017-Nov-08 05:22N 42°12' E 010°15'718.3
2017-Nov-08 05:00N 42°09' E 010°23'333 6.6
2017-Nov-06 02:15N 38°27' E 015°48'0 0.5
2017-Nov-06 02:00N 38°27' E 015°48'2 3.4
2017-Nov-06 01:27N 38°25' E 015°46'510.5
2017-Nov-06 01:00N 38°21' E 015°43'813.6
2017-Nov-06 00:25N 38°14' E 015°38'513.1
2017-Nov-06 00:00N 38°09' E 015°37'714.1
2017-Nov-05 23:30N 38°02' E 015°35'815.5
2017-Nov-05 23:00N 37°54' E 015°36'1014.7
2017-Nov-05 22:21N 37°45' E 015°38'915.1
2017-Nov-05 21:46N 37°42' E 015°49'415.2
2017-Nov-05 21:29N 37°42' E 015°54'714.7
2017-Nov-05 20:59N 37°40' E 016°03'814.7
2017-Nov-05 20:27N 37°38' E 016°12'715.0
2017-Nov-05 20:00N 37°36' E 016°21'61412.1
2017-Nov-03 17:05N 40°26' E 029°00'111.7
2017-Nov-03 16:59N 40°26' E 029°02'4 0.3
2017-Nov-03 03:13N 40°26' E 029°06'2 6.0
2017-Nov-03 02:56N 40°26' E 029°04'16 5.1
2017-Nov-02 23:53N 40°39' E 028°52'614.7
2017-Nov-02 23:29N 40°42' E 028°58'714.7
2017-Nov-02 23:00N 40°43' E 029°08'714.4
2017-Nov-02 22:30N 40°44' E 029°17'612.4
2017-Nov-02 21:59N 40°45' E 029°25'612.2
2017-Nov-02 21:29N 40°45' E 029°34'0 0.0
2017-Nov-02 10:02N 40°45' E 029°33'211.9
2017-Nov-02 09:53N 40°45' E 029°31'512.1
2017-Nov-02 09:29N 40°44' E 029°25'510.2
2017-Nov-02 09:00N 40°43' E 029°18'714.4
2017-Nov-02 08:30N 40°43' E 029°09'612.4
2017-Nov-02 08:01N 40°42' E 029°01'1 1.2
2017-Nov-02 07:30N 40°42' E 029°00'1 1.0
2017-Nov-02 06:56N 40°42' E 029°01'  
Track history (hours):
 
Tides and Currents Weather Stations Pressure Air Temp Water Temp Dewpoint Dewpoint Depression Visibility Wind Speed Wind Dir Waves Ship Positions

MSC Immacolata

Last reported at 2017-Nov-12 06:38 UTC. Time now 2017-Nov-18 23:23 UTC.
Position N 36°19' W 009°24'.

Length 199 m; draft 10 m.

Type: Cargo ship. MMSI: 373124000.

Date/timePositionNaut miles runAvg speedWind from/ knotsBaromVisibWave heightAir tempDewpointWater temp
2017-Nov-12 06:38N 36°19' W 009°24'217.4
2017-Nov-12 06:30N 36°18' W 009°21'917.6
2017-Nov-12 06:00N 36°14' W 009°11'917.6
2017-Nov-12 05:30N 36°11' W 009°01'917.4
2017-Nov-12 04:59N 36°07' W 008°51'817.4
2017-Nov-12 04:30N 36°04' W 008°41'2317.3
2017-Nov-12 03:10N 35°58' W 008°13'1317.7
2017-Nov-12 02:27N 35°58' W 007°57'1717.7
2017-Nov-12 01:29N 35°58' W 007°36'817.9
2017-Nov-12 01:00N 35°58' W 007°26'8817.3
2017-Nov-11 19:54N 35°58' W 005°37'616.8
2017-Nov-11 19:30N 35°59' W 005°29'815.6
2017-Nov-11 19:00N 36°02' W 005°20'815.3
2017-Nov-11 18:30N 36°03' W 005°11'21216.8
2017-Nov-11 05:51N 37°14' W 001°01'718.6
2017-Nov-11 05:29N 37°19' W 000°55'918.6
2017-Nov-11 05:00N 37°25' W 000°47'918.2
2017-Nov-11 04:29N 37°31' W 000°38'917.7
2017-Nov-11 04:00N 37°38' W 000°30'917.7
2017-Nov-11 03:30N 37°45' W 000°24'917.5
2017-Nov-11 03:00N 37°52' W 000°18'917.3
2017-Nov-11 02:30N 37°60' W 000°12'44910.0
2017-Nov-09 05:45N 43°04' E 007°01'417.9
2017-Nov-09 05:30N 43°07' E 007°06'917.8
2017-Nov-09 05:00N 43°13' E 007°15'1217.9
2017-Nov-09 04:19N 43°21' E 007°28'5018.4
2017-Nov-09 01:37N 43°53' E 008°20'218.6
2017-Nov-09 01:30N 43°55' E 008°21'918.8
2017-Nov-09 01:00N 44°04' E 008°26'918.3
2017-Nov-09 00:30N 44°12' E 008°31'713.2
2017-Nov-09 00:00N 44°19' E 008°31'1 1.0
2017-Nov-08 23:28N 44°19' E 008°30'0 0.0
2017-Nov-08 22:58N 44°19' E 008°30'0 0.0
2017-Nov-08 22:28N 44°19' E 008°30'0 0.0
2017-Nov-08 21:58N 44°19' E 008°30'0 0.0
2017-Nov-08 21:28N 44°19' E 008°30'0 0.0
2017-Nov-08 20:58N 44°19' E 008°30'0 0.0
2017-Nov-08 20:28N 44°19' E 008°30'0 0.0
2017-Nov-08 19:58N 44°19' E 008°30'0 0.0
2017-Nov-08 19:28N 44°19' E 008°30'0 0.0
2017-Nov-08 18:58N 44°19' E 008°30'0 0.0
2017-Nov-08 18:28N 44°19' E 008°30'0 0.0
2017-Nov-08 17:58N 44°19' E 008°30'0 0.0
2017-Nov-08 17:28N 44°19' E 008°30'0 0.0
2017-Nov-08 16:58N 44°19' E 008°30'0 0.0
2017-Nov-08 16:28N 44°19' E 008°30'0 0.0
2017-Nov-08 15:58N 44°19' E 008°30'0 0.0
2017-Nov-08 15:28N 44°19' E 008°30'0 0.0
2017-Nov-08 14:58N 44°19' E 008°30'0 0.4
2017-Nov-08 14:30N 44°19' E 008°30'2 3.5
2017-Nov-08 14:00N 44°18' E 008°32'510.3
2017-Nov-08 13:30N 44°14' E 008°37'713.7
2017-Nov-08 13:01N 44°08' E 008°42'816.3
2017-Nov-08 12:31N 44°01' E 008°48'917.9
2017-Nov-08 12:01N 43°54' E 008°55'918.1
2017-Nov-08 11:31N 43°46' E 009°02'918.3
2017-Nov-08 11:01N 43°39' E 009°09'918.2
2017-Nov-08 10:30N 43°31' E 009°16'918.2
2017-Nov-08 10:01N 43°23' E 009°22'918.1
2017-Nov-08 09:31N 43°16' E 009°29'918.1
2017-Nov-08 09:01N 43°08' E 009°36'3218.2
2017-Nov-08 07:16N 42°38' E 009°48'3317.2
2017-Nov-08 05:22N 42°12' E 010°15'718.3
2017-Nov-08 05:00N 42°09' E 010°23'333 6.6
2017-Nov-06 02:15N 38°27' E 015°48'0 0.5
2017-Nov-06 02:00N 38°27' E 015°48'2 3.4
2017-Nov-06 01:27N 38°25' E 015°46'510.5
2017-Nov-06 01:00N 38°21' E 015°43'813.6
2017-Nov-06 00:25N 38°14' E 015°38'513.1
2017-Nov-06 00:00N 38°09' E 015°37'714.1
2017-Nov-05 23:30N 38°02' E 015°35'815.5
2017-Nov-05 23:00N 37°54' E 015°36'1014.7
2017-Nov-05 22:21N 37°45' E 015°38'915.1
2017-Nov-05 21:46N 37°42' E 015°49'415.2
2017-Nov-05 21:29N 37°42' E 015°54'714.7
2017-Nov-05 20:59N 37°40' E 016°03'814.7
2017-Nov-05 20:27N 37°38' E 016°12'715.0
2017-Nov-05 20:00N 37°36' E 016°21'61412.1
2017-Nov-03 17:05N 40°26' E 029°00'111.7
2017-Nov-03 16:59N 40°26' E 029°02'4 0.3
2017-Nov-03 03:13N 40°26' E 029°06'2 6.0
2017-Nov-03 02:56N 40°26' E 029°04'16 5.1
2017-Nov-02 23:53N 40°39' E 028°52'614.7
2017-Nov-02 23:29N 40°42' E 028°58'714.7
2017-Nov-02 23:00N 40°43' E 029°08'714.4
2017-Nov-02 22:30N 40°44' E 029°17'612.4
2017-Nov-02 21:59N 40°45' E 029°25'612.2
2017-Nov-02 21:29N 40°45' E 029°34'0 0.0
2017-Nov-02 10:02N 40°45' E 029°33'211.9
2017-Nov-02 09:53N 40°45' E 029°31'512.1
2017-Nov-02 09:29N 40°44' E 029°25'510.2
2017-Nov-02 09:00N 40°43' E 029°18'714.4
2017-Nov-02 08:30N 40°43' E 029°09'612.4
2017-Nov-02 08:01N 40°42' E 029°01'1 1.2
2017-Nov-02 07:30N 40°42' E 029°00'1 1.0
2017-Nov-02 06:56N 40°42' E 029°01'  

Dump ship's entire track history